Time;durP1;ratioP1;P1;durP2;ratioP2;P2;SDS_P1;SDS_P2;PMS_P1;PMS_P2;Temp;Humidity;BMP_temperature;BMP_pressure;BME280_temperature;BME280_humidity;BME280_pressure;Samples;Min_cycle;Max_cycle;Signal;HPM_P1;HPM_P2
2022/01/14 00:00:13;;;;;;;18.55;15.45;;;;;;;8.35;62.37;101651.16;5049751;27;102371;-94
2022/01/14 00:02:41;;;;;;;19.73;17.02;;;;;;;8.35;62.78;101645.72;5050414;27;102343;-92
2022/01/14 00:05:08;;;;;;;19.38;15.73;;;;;;;8.35;62.52;101648.44;5048212;27;102705;-93
2022/01/14 00:07:35;;;;;;;21.67;16.42;;;;;;;8.35;62.04;101650.31;5046966;27;102140;-93
2022/01/14 00:10:02;;;;;;;20.83;15.60;;;;;;;8.35;62.56;101640.28;5045896;27;102472;-93
2022/01/14 00:12:36;;;;;;;21.63;16.58;;;;;;;8.35;62.94;101629.44;5045633;27;102683;-92
2022/01/14 00:15:24;;;;;;;20.83;16.17;;;;;;;8.35;63.52;101628.63;5049970;27;103942;-92
2022/01/14 00:17:53;;;;;;;19.02;16.05;;;;;;;8.37;62.44;101638.22;5048142;27;102619;-91
2022/01/14 00:20:21;;;;;;;20.48;15.38;;;;;;;8.35;62.93;101624.03;5051089;27;102733;-91
2022/01/14 00:22:47;;;;;;;18.30;15.50;;;;;;;8.36;63.09;101617.53;5065093;27;102168;-93
2022/01/14 00:33:31;;;;;;;18.88;15.18;;;;;;;8.35;62.74;101602.31;5076965;27;102026;-95
2022/01/14 00:35:57;;;;;;;19.50;16.17;;;;;;;8.36;63.10;101603.16;5053022;27;102041;-95
2022/01/14 00:38:24;;;;;;;18.95;15.75;;;;;;;8.37;63.10;101599.41;5042304;27;103005;-92
2022/01/14 00:40:51;;;;;;;18.08;14.77;;;;;;;8.36;62.68;101600.44;5050049;27;102384;-94
2022/01/14 00:43:17;;;;;;;20.67;15.63;;;;;;;8.35;62.91;101591.47;5052187;27;102560;-93
2022/01/14 00:45:44;;;;;;;17.95;15.35;;;;;;;8.35;63.08;101596.91;5045571;27;103210;-91
2022/01/14 00:48:10;;;;;;;16.88;13.85;;;;;;;8.36;62.36;101595.84;5043835;27;102152;-92
2022/01/14 00:50:44;;;;;;;18.30;14.32;;;;;;;8.37;62.28;101594.81;5049628;27;102391;-93
2022/01/14 00:53:11;;;;;;;18.42;14.32;;;;;;;8.37;62.61;101589.41;5047220;27;102019;-88
2022/01/14 00:55:48;;;;;;;19.08;15.20;;;;;;;8.37;63.52;101588.56;5040454;27;104208;-88
2022/01/14 01:01:00;;;;;;;17.15;14.73;;;;;;;8.37;62.98;101569.56;5049223;27;102579;-88
2022/01/14 01:03:28;;;;;;;20.33;15.60;;;;;;;8.36;62.99;101571.41;5050586;27;102223;-89
2022/01/14 01:05:56;;;;;;;18.17;14.25;;;;;;;8.37;63.01;101564.13;5045334;27;104084;-89
2022/01/14 01:08:25;;;;;;;17.85;14.90;;;;;;;8.36;62.68;101552.44;5041699;27;102727;-89
2022/01/14 01:10:52;;;;;;;17.73;14.75;;;;;;;8.37;62.48;101550.56;5052854;27;102160;-89
2022/01/14 01:13:25;;;;;;;18.17;14.27;;;;;;;8.36;62.41;101538.88;5046200;27;102283;-88
2022/01/14 01:15:53;;;;;;;18.60;15.23;;;;;;;8.37;62.54;101546.00;5049119;27;103452;-88
2022/01/14 01:18:21;;;;;;;17.45;14.60;;;;;;;8.37;63.11;101535.16;5052630;27;102251;-89
2022/01/14 01:20:47;;;;;;;18.63;15.05;;;;;;;8.37;62.71;101535.16;5051694;27;102226;-90
2022/01/14 01:23:16;;;;;;;18.90;14.32;;;;;;;8.36;62.70;101519.88;5049097;27;103038;-90
2022/01/14 01:25:56;;;;;;;20.80;15.20;;;;;;;8.36;62.77;101511.75;5052935;27;102579;-90
2022/01/14 01:28:22;;;;;;;16.48;14.20;;;;;;;8.36;63.30;101505.50;5056613;27;102234;-90
2022/01/14 01:30:52;;;;;;;17.83;14.40;;;;;;;8.36;62.59;101509.03;5070855;27;102307;-90
2022/01/14 01:33:19;;;;;;;17.23;13.63;;;;;;;8.37;62.84;101497.19;5056959;27;102922;-92
2022/01/14 01:35:46;;;;;;;19.13;14.50;;;;;;;8.37;63.28;101497.19;5056574;27;102782;-93
2022/01/14 01:38:16;;;;;;;18.15;14.60;;;;;;;8.37;62.59;101491.75;5046942;27;102476;-93
2022/01/14 01:40:46;;;;;;;18.58;14.43;;;;;;;8.36;62.87;101479.22;5055570;27;102601;-93
2022/01/14 01:43:14;;;;;;;18.15;14.23;;;;;;;8.36;63.18;101471.06;5072681;27;103613;-93
2022/01/14 01:45:41;;;;;;;18.13;14.10;;;;;;;8.37;62.81;101472.78;5062671;27;102741;-93
2022/01/14 01:48:07;;;;;;;17.08;14.05;;;;;;;8.37;63.16;101466.50;5074546;27;103670;-95
2022/01/14 01:50:36;;;;;;;17.77;13.88;;;;;;;8.37;63.71;101459.22;5045200;27;102222;-95
2022/01/14 01:53:04;;;;;;;18.02;14.13;;;;;;;8.37;63.56;101464.63;5073346;27;102256;-94
2022/01/14 01:55:31;;;;;;;18.45;14.57;;;;;;;8.37;62.79;101461.06;5075638;27;103128;-92
2022/01/14 01:58:00;;;;;;;16.58;13.48;;;;;;;8.37;62.51;101448.38;5074825;27;102524;-92
2022/01/14 02:00:27;;;;;;;15.98;13.27;;;;;;;8.37;63.75;101458.34;5064335;27;103752;-93
2022/01/14 02:02:54;;;;;;;18.50;13.60;;;;;;;8.37;62.71;101442.94;5070880;27;103464;-92
2022/01/14 02:05:22;;;;;;;17.40;13.75;;;;;;;8.38;63.22;101438.34;5074555;27;102725;-92
2022/01/14 02:07:49;;;;;;;17.42;14.10;;;;;;;8.38;63.28;101432.91;5070419;27;102321;-92
2022/01/14 02:10:15;;;;;;;18.75;14.10;;;;;;;8.37;62.91;101432.09;5068647;27;103606;-92
2022/01/14 02:12:51;;;;;;;17.08;13.32;;;;;;;8.37;62.92;101437.50;5073012;27;102218;-91
2022/01/14 02:15:30;;;;;;;16.15;13.43;;;;;;;8.37;63.23;101426.66;5073003;27;104066;-92
2022/01/14 02:23:16;;;;;;;16.63;13.73;;;;;;;8.38;62.74;101433.72;5070024;27;102439;-92
2022/01/14 02:25:42;;;;;;;15.88;13.32;;;;;;;8.38;63.51;101422.06;5073775;27;103987;-91
2022/01/14 02:28:13;;;;;;;17.20;13.30;;;;;;;8.37;62.96;101421.25;5072672;27;102068;-93
2022/01/14 02:30:42;;;;;;;17.77;14.57;;;;;;;8.37;62.87;101410.38;5069605;27;102920;-93
2022/01/14 02:33:10;;;;;;;16.85;13.50;;;;;;;8.39;62.69;101415.56;5075645;27;102264;-92
2022/01/14 02:35:39;;;;;;;18.55;13.52;;;;;;;8.39;62.58;101402.00;5074140;27;103214;-92
2022/01/14 02:38:06;;;;;;;16.23;13.10;;;;;;;8.38;63.40;101397.66;5074000;27;102541;-91
2022/01/14 02:40:33;;;;;;;15.50;13.52;;;;;;;8.38;62.49;101384.09;5074440;27;102384;-93
2022/01/14 02:43:01;;;;;;;17.50;13.88;;;;;;;8.39;62.45;101388.44;5075354;27;102345;-94
2022/01/14 02:45:30;;;;;;;18.75;13.98;;;;;;;8.38;62.98;101387.63;5076063;27;102675;-94
2022/01/14 02:47:57;;;;;;;15.27;13.32;;;;;;;8.38;63.00;101389.50;5073903;27;102135;-93
2022/01/14 02:50:25;;;;;;;17.73;13.98;;;;;;;8.39;63.34;101383.00;5084049;27;102590;-92
2022/01/14 02:55:22;;;;;;;16.35;13.25;;;;;;;8.39;63.24;101377.59;5068045;27;103404;-94
2022/01/14 02:57:51;;;;;;;17.83;13.32;;;;;;;8.38;63.45;101365.91;5050570;27;102069;-94
2022/01/14 03:00:19;;;;;;;18.77;13.65;;;;;;;8.39;63.09;101354.00;5067850;27;102129;-94
2022/01/14 03:02:47;;;;;;;16.13;13.23;;;;;;;8.39;62.94;101356.72;5075068;27;102144;-95
2022/01/14 03:05:16;;;;;;;17.45;14.07;;;;;;;8.40;62.91;101354.81;5065022;27;102513;-95
2022/01/14 03:07:43;;;;;;;16.00;13.27;;;;;;;8.39;63.23;101351.28;5055408;27;102189;-95
2022/01/14 03:10:14;;;;;;;16.35;13.57;;;;;;;8.39;63.52;101364.03;5058100;27;101192;-96
2022/01/14 03:12:41;;;;;;;15.80;12.88;;;;;;;8.39;63.13;101372.97;5060860;27;102070;-94
2022/01/14 03:15:11;;;;;;;16.10;13.40;;;;;;;8.40;62.95;101363.81;5067547;27;103908;-94
2022/01/14 03:17:39;;;;;;;17.13;13.18;;;;;;;8.40;63.29;101363.81;5047023;27;101873;-94
2022/01/14 03:20:22;;;;;;;17.42;13.77;;;;;;;8.40;63.39;101355.66;5054778;27;101401;-95
2022/01/14 03:23:03;;;;;;;17.98;13.75;;;;;;;8.40;62.72;101357.53;5045438;27;101597;-96
2022/01/14 03:26:04;;;;;;;19.25;13.95;;;;;;;8.40;63.51;101350.25;5064843;27;103075;-96
2022/01/14 03:28:24;;;;;;;16.50;12.85;;;;;;;8.40;62.91;101354.81;5073137;27;102217;-94
2022/01/14 03:30:53;;;;;;;16.60;13.50;;;;;;;8.40;63.30;101347.53;5074315;27;102119;-94
2022/01/14 03:33:19;;;;;;;12.73;10.33;;;;;;;8.41;63.41;101334.78;5078114;27;102404;-93
2022/01/14 03:35:46;;;;;;;15.88;13.50;;;;;;;8.40;62.97;101339.41;5073226;27;102962;-93
2022/01/14 03:38:13;;;;;;;15.68;12.95;;;;;;;8.41;63.56;101341.03;5067880;27;102486;-94
2022/01/14 03:40:42;;;;;;;16.63;13.38;;;;;;;8.40;62.91;101342.09;5072951;27;102442;-95
2022/01/14 03:43:08;;;;;;;16.67;12.85;;;;;;;8.40;63.90;101338.53;5069851;27;101941;-96
2022/01/14 03:45:35;;;;;;;17.85;13.57;;;;;;;8.40;62.99;101335.84;5064074;27;101482;-95
2022/01/14 03:48:01;;;;;;;15.90;13.10;;;;;;;8.41;63.23;101332.91;5064587;27;101976;-96
2022/01/14 03:50:28;;;;;;;16.42;13.05;;;;;;;8.41;63.23;101324.75;5058420;27;102370;-95
2022/01/14 03:52:54;;;;;;;15.65;13.05;;;;;;;8.41;62.86;101318.50;5052829;27;101318;-95
2022/01/14 03:55:21;;;;;;;15.07;12.80;;;;;;;8.41;63.46;101323.94;5063355;27;101863;-94
2022/01/14 03:57:49;;;;;;;17.52;13.98;;;;;;;8.41;62.76;101319.34;5069874;27;101734;-95
2022/01/14 04:00:17;;;;;;;14.77;12.20;;;;;;;8.41;63.04;101313.91;5076276;27;101888;-95
2022/01/14 04:02:44;;;;;;;15.95;12.57;;;;;;;8.41;63.87;101305.78;5076801;27;102807;-93
2022/01/14 04:05:11;;;;;;;16.77;12.90;;;;;;;8.42;64.20;101298.47;5076862;27;102713;-93
2022/01/14 04:07:37;;;;;;;15.50;12.90;;;;;;;8.41;62.73;101307.66;5077621;27;102145;-94
2022/01/14 04:10:05;;;;;;;14.15;11.85;;;;;;;8.41;63.04;101303.06;5076807;27;102389;-93
2022/01/14 04:13:21;;;;;;;16.65;13.15;;;;;;;8.41;62.72;101300.34;5078268;27;102099;-94
2022/01/14 04:15:42;;;;;;;16.52;12.93;;;;;;;8.40;63.31;101285.16;5070079;27;102706;-93
2022/01/14 04:18:13;;;;;;;15.50;12.57;;;;;;;8.40;63.39;101290.56;5073293;27;102865;-94
2022/01/14 04:20:40;;;;;;;16.30;12.88;;;;;;;8.41;62.64;101303.06;5069115;27;102950;-93
2022/01/14 04:23:07;;;;;;;17.23;13.45;;;;;;;8.41;64.05;101292.22;5071887;27;102113;-94
2022/01/14 04:25:35;;;;;;;15.50;12.43;;;;;;;8.42;63.03;101303.88;5077711;27;103065;-93
2022/01/14 04:28:02;;;;;;;14.35;11.98;;;;;;;8.42;63.23;101287.59;5075678;27;102096;-94
2022/01/14 04:30:30;;;;;;;15.77;13.20;;;;;;;8.42;62.76;101282.19;5075093;27;102052;-93
2022/01/14 04:32:58;;;;;;;17.00;12.60;;;;;;;8.42;63.73;101290.31;5077879;27;102502;-93
2022/01/14 04:35:25;;;;;;;15.02;12.80;;;;;;;8.42;64.10;101293.03;5070731;27;103904;-93
2022/01/14 04:37:51;;;;;;;14.85;12.07;;;;;;;8.41;64.22;101292.22;5069942;27;102179;-93
2022/01/14 04:40:18;;;;;;;15.00;12.52;;;;;;;8.41;64.15;101277.84;5079540;27;102658;-94
2022/01/14 04:42:46;;;;;;;15.63;12.35;;;;;;;8.41;63.36;101265.09;5075017;27;102521;-94
2022/01/14 04:45:25;;;;;;;14.52;12.00;;;;;;;8.42;64.21;101258.59;5066203;27;102688;-93
2022/01/14 04:47:55;;;;;;;15.07;11.95;;;;;;;8.43;63.45;101262.94;5081294;27;102760;-94
2022/01/14 04:50:23;;;;;;;15.05;12.15;;;;;;;8.42;63.21;101272.16;5079098;27;102102;-92
2022/01/14 04:52:50;;;;;;;16.55;12.27;;;;;;;8.42;63.95;101272.16;5083491;27;102206;-92
2022/01/14 04:55:19;;;;;;;14.30;12.38;;;;;;;8.42;63.33;101261.31;5079565;27;102383;-93
2022/01/14 04:57:46;;;;;;;14.45;12.05;;;;;;;8.43;63.63;101262.13;5074869;27;102263;-94
2022/01/14 05:00:15;;;;;;;13.80;11.85;;;;;;;8.43;63.95;101272.97;5078556;27;105513;-94
2022/01/14 05:02:42;;;;;;;15.07;11.70;;;;;;;8.43;63.88;101273.78;5067078;27;102346;-92
2022/01/14 05:05:10;;;;;;;16.08;12.45;;;;;;;8.42;63.38;101266.72;5082179;27;102731;-92
2022/01/14 05:07:38;;;;;;;15.10;12.73;;;;;;;8.42;63.40;101280.28;5074282;27;102367;-91
2022/01/14 05:12:37;;;;;;;13.60;12.18;;;;;;;8.43;63.17;101284.63;5075343;27;103836;-92
2022/01/14 05:15:05;;;;;;;15.13;12.10;;;;;;;8.43;64.00;101287.34;5076611;27;103885;-93
2022/01/14 05:17:31;;;;;;;14.13;12.48;;;;;;;8.43;63.51;101279.22;5066802;27;102089;-94
2022/01/14 05:19:58;;;;;;;13.80;12.15;;;;;;;8.44;63.65;101280.06;5070900;27;102470;-94
2022/01/14 05:22:27;;;;;;;14.35;11.65;;;;;;;8.43;63.25;101276.50;5062343;27;102528;-94
2022/01/14 05:24:54;;;;;;;15.63;12.80;;;;;;;8.43;63.70;101268.38;5045099;27;102757;-93
2022/01/14 05:27:21;;;;;;;13.75;12.07;;;;;;;8.45;63.98;101280.88;5051513;27;102228;-94
2022/01/14 05:29:48;;;;;;;15.68;12.50;;;;;;;8.44;63.66;101282.78;5052794;27;102553;-93
2022/01/14 05:32:15;;;;;;;15.40;12.13;;;;;;;8.45;63.97;101254.56;5046030;27;102049;-89
2022/01/14 05:34:44;;;;;;;13.32;11.88;;;;;;;8.44;63.87;101252.94;5053274;27;102179;-95
2022/01/14 05:37:11;;;;;;;15.60;12.18;;;;;;;8.46;64.09;101252.69;5052353;27;102133;-92
2022/01/14 05:39:40;;;;;;;15.95;12.23;;;;;;;8.45;63.45;101241.00;5046980;27;102636;-93
2022/01/14 05:42:07;;;;;;;14.07;11.43;;;;;;;8.46;63.38;101239.13;5051648;27;102280;-91
2022/01/14 05:44:35;;;;;;;16.13;12.52;;;;;;;8.47;63.63;101246.19;5053322;27;105704;-93
2022/01/14 05:47:01;;;;;;;14.18;11.45;;;;;;;8.47;63.60;101251.59;5051291;27;102141;-94
2022/01/14 05:49:29;;;;;;;13.52;11.60;;;;;;;8.47;63.40;101244.28;5019319;27;103134;-94
2022/01/14 05:51:56;;;;;;;15.65;12.20;;;;;;;8.47;64.18;101255.13;5025793;28;102790;-93
2022/01/14 05:54:23;;;;;;;16.35;12.75;;;;;;;8.49;63.62;101260.34;5016362;27;102846;-90
2022/01/14 05:56:50;;;;;;;16.52;11.80;;;;;;;8.50;63.80;101270.09;5009895;28;103624;-93
2022/01/14 05:59:18;;;;;;;15.53;11.80;;;;;;;8.49;64.01;101260.34;5015329;28;102704;-92
2022/01/14 06:01:45;;;;;;;14.10;11.60;;;;;;;8.49;64.04;101260.34;5009883;28;102377;-91
2022/01/14 06:04:11;;;;;;;14.27;11.93;;;;;;;8.49;63.93;101261.16;5009825;27;102530;-91
2022/01/14 06:06:38;;;;;;;13.88;11.75;;;;;;;8.51;63.20;101269.03;5004253;28;102715;-91
2022/01/14 06:09:05;;;;;;;13.23;11.15;;;;;;;8.51;63.53;101252.75;5007224;27;102324;-91
2022/01/14 06:11:32;;;;;;;13.68;11.27;;;;;;;8.50;64.28;101256.53;5029646;27;102647;-90
2022/01/14 06:13:59;;;;;;;13.95;11.98;;;;;;;8.50;63.53;101246.50;5028527;27;104380;-92
2022/01/14 06:16:26;;;;;;;14.27;11.40;;;;;;;8.51;63.68;101258.19;5035900;27;102413;-91
2022/01/14 06:18:52;;;;;;;13.13;11.05;;;;;;;8.51;64.43;101255.47;5031417;27;102526;-91
2022/01/14 06:21:19;;;;;;;12.98;11.43;;;;;;;8.52;63.44;101254.44;5032062;27;102273;-91
2022/01/14 06:23:46;;;;;;;12.85;10.75;;;;;;;8.51;63.75;101247.34;5019729;27;103945;-90
2022/01/14 06:26:12;;;;;;;15.02;12.18;;;;;;;8.51;63.77;101237.34;5032675;27;102116;-91
2022/01/14 06:28:42;;;;;;;12.80;11.30;;;;;;;8.51;64.23;101231.06;5032413;27;103294;-90
2022/01/14 06:31:10;;;;;;;13.23;11.20;;;;;;;8.52;64.11;101230.00;5029025;27;103452;-93
2022/01/14 06:33:37;;;;;;;13.43;10.95;;;;;;;8.53;64.03;101226.22;5031267;27;103853;-92
2022/01/14 06:36:04;;;;;;;14.07;11.13;;;;;;;8.53;63.13;101218.09;5034564;27;102136;-91
2022/01/14 06:38:31;;;;;;;14.40;11.25;;;;;;;8.52;63.76;101205.59;5032033;27;103005;-92
2022/01/14 06:40:59;;;;;;;12.80;10.55;;;;;;;8.53;64.16;101218.91;5030731;27;102939;-92
2022/01/14 06:43:25;;;;;;;15.43;11.07;;;;;;;8.52;64.07;101211.84;5012114;27;102765;-92
2022/01/14 06:45:52;;;;;;;13.32;10.80;;;;;;;8.51;64.09;101212.06;5033877;27;102208;-92
2022/01/14 06:48:20;;;;;;;15.40;11.10;;;;;;;8.51;63.64;101210.22;5050050;27;102546;-90
2022/01/14 06:50:46;;;;;;;11.57;10.00;;;;;;;8.52;63.66;101211.03;5078022;27;102610;-92
2022/01/14 06:53:14;;;;;;;12.70;10.95;;;;;;;8.53;63.80;101201.81;5061939;27;103895;-91
2022/01/14 06:55:41;;;;;;;11.73;10.18;;;;;;;8.51;64.23;101193.06;5067692;27;103922;-91
2022/01/14 06:58:07;;;;;;;13.73;11.27;;;;;;;8.51;64.66;101187.66;5069594;27;102224;-90
2022/01/14 07:00:35;;;;;;;13.15;10.50;;;;;;;8.52;64.25;101190.13;5067714;27;102785;-91
2022/01/14 07:03:02;;;;;;;13.52;10.45;;;;;;;8.53;64.07;101185.53;5069211;27;103550;-91
2022/01/14 07:05:30;;;;;;;13.07;10.73;;;;;;;8.53;63.66;101174.69;5074573;27;101974;-91
2022/01/14 07:07:56;;;;;;;12.52;10.68;;;;;;;8.52;64.33;101175.75;5067773;27;103691;-91
2022/01/14 07:10:26;;;;;;;12.02;10.25;;;;;;;8.51;64.29;101172.22;5065716;27;102663;-90
2022/01/14 07:12:53;;;;;;;12.05;10.35;;;;;;;8.51;64.58;101165.94;5062487;27;103493;-91
2022/01/14 07:15:21;;;;;;;12.75;10.05;;;;;;;8.53;64.04;101161.13;5071034;27;105979;-89
2022/01/14 07:17:47;;;;;;;12.00;10.70;;;;;;;8.52;64.16;101162.19;5071757;27;102179;-89
2022/01/14 07:20:17;;;;;;;12.40;10.65;;;;;;;8.53;63.60;101158.41;5073487;27;102228;-90
2022/01/14 07:22:46;;;;;;;12.20;10.18;;;;;;;8.53;63.82;101158.41;5071121;27;102525;-91
2022/01/14 07:25:13;;;;;;;12.60;10.82;;;;;;;8.53;64.56;101150.25;5074032;27;102897;-90
2022/01/14 07:27:40;;;;;;;13.20;10.68;;;;;;;8.53;64.42;101139.41;5070318;27;102207;-89
2022/01/14 07:30:08;;;;;;;13.40;10.82;;;;;;;8.54;63.53;101138.34;5069453;27;102532;-89
2022/01/14 07:32:35;;;;;;;12.50;10.23;;;;;;;8.53;64.35;101134.00;5072748;27;102828;-90
2022/01/14 07:35:02;;;;;;;12.38;10.00;;;;;;;8.54;63.77;101117.44;5074212;27;102566;-89
2022/01/14 07:37:29;;;;;;;12.40;10.77;;;;;;;8.55;64.39;101107.44;5074409;27;102417;-95
2022/01/14 07:39:57;;;;;;;11.88;10.35;;;;;;;8.55;64.63;101108.28;5078992;27;102149;-91
2022/01/14 07:42:23;;;;;;;13.10;10.02;;;;;;;8.56;64.40;101109.09;5067318;27;102686;-91
2022/01/14 07:44:50;;;;;;;12.00;9.90;;;;;;;8.56;64.03;101100.94;5072279;27;102211;-91
2022/01/14 07:47:16;;;;;;;12.88;10.43;;;;;;;8.57;63.72;101105.28;5075464;27;102064;-90
2022/01/14 07:49:43;;;;;;;13.80;10.65;;;;;;;8.57;64.08;101094.44;5076458;27;102617;-91
2022/01/14 07:52:09;;;;;;;12.93;10.43;;;;;;;8.57;63.87;101105.28;5067716;27;102779;-91
2022/01/14 07:54:36;;;;;;;11.85;10.50;;;;;;;8.56;64.55;101088.19;5065728;27;102266;-91
2022/01/14 07:57:07;;;;;;;13.25;10.65;;;;;;;8.56;63.97;101085.50;5074835;27;102324;-91
2022/01/14 07:59:35;;;;;;;12.45;10.05;;;;;;;8.57;64.19;101089.00;5071664;27;102236;-92
2022/01/14 08:02:02;;;;;;;12.30;10.18;;;;;;;8.57;63.63;101089.84;5071294;27;102723;-91
2022/01/14 08:04:32;;;;;;;13.05;9.85;;;;;;;8.58;64.66;101085.22;5077193;27;102176;-91
2022/01/14 08:07:08;;;;;;;11.85;9.65;;;;;;;8.58;64.61;101085.22;5071811;27;102219;-91
2022/01/14 08:09:45;;;;;;;12.77;10.27;;;;;;;8.56;64.11;101088.19;5080505;27;102425;-96
2022/01/14 08:12:12;;;;;;;13.57;10.63;;;;;;;8.57;64.80;101078.16;5074235;27;103137;-89
2022/01/14 08:14:39;;;;;;;11.40;10.20;;;;;;;8.58;64.42;101082.50;5067131;27;102547;-91
2022/01/14 08:17:06;;;;;;;11.45;10.20;;;;;;;8.59;63.67;101070.59;5074005;27;102340;-91
2022/01/14 08:19:33;;;;;;;12.02;10.38;;;;;;;8.57;64.61;101068.13;5077220;27;102320;-91
2022/01/14 08:22:01;;;;;;;11.70;9.85;;;;;;;8.58;63.66;101068.94;5066593;27;104522;-91
2022/01/14 08:24:29;;;;;;;12.70;11.00;;;;;;;8.57;63.80;101060.00;5073883;27;102879;-90
2022/01/14 08:26:56;;;;;;;13.40;10.65;;;;;;;8.58;63.91;101058.94;5084403;27;101981;-91
2022/01/14 08:29:24;;;;;;;13.90;10.73;;;;;;;8.58;64.17;101064.38;5077273;27;102746;-90
2022/01/14 08:31:50;;;;;;;12.30;10.32;;;;;;;8.59;64.22;101063.28;5073791;27;103416;-90
2022/01/14 08:34:17;;;;;;;12.65;10.65;;;;;;;8.58;64.11;101075.22;5070913;27;102262;-90
2022/01/14 08:36:43;;;;;;;12.98;10.57;;;;;;;8.57;64.69;101067.31;5071616;27;103081;-88
2022/01/14 08:39:10;;;;;;;11.05;9.60;;;;;;;8.59;64.05;101059.75;5071579;27;102471;-90
2022/01/14 08:41:36;;;;;;;13.50;10.88;;;;;;;8.59;64.65;101065.19;5073977;27;105133;-90
2022/01/14 08:44:03;;;;;;;12.77;10.30;;;;;;;8.58;63.74;101047.25;5073916;27;102454;-90
2022/01/14 08:46:32;;;;;;;12.20;10.15;;;;;;;8.58;63.89;101042.66;5074725;27;102234;-89
2022/01/14 08:49:00;;;;;;;13.10;10.75;;;;;;;8.59;64.77;101040.78;5078321;27;102501;-90
2022/01/14 08:51:28;;;;;;;10.98;9.77;;;;;;;8.58;63.70;101039.94;5072979;27;103637;-90
2022/01/14 08:53:54;;;;;;;12.65;10.45;;;;;;;8.59;63.99;101048.91;5058527;27;102418;-90
2022/01/14 08:56:21;;;;;;;12.82;10.65;;;;;;;8.59;64.92;101032.63;5057853;27;103537;-90
2022/01/14 08:58:47;;;;;;;13.23;10.30;;;;;;;8.59;63.98;101030.72;5054369;27;102107;-91
2022/01/14 09:01:14;;;;;;;11.90;10.35;;;;;;;8.58;64.21;101029.09;5055124;27;102711;-90
2022/01/14 09:03:42;;;;;;;11.63;10.05;;;;;;;8.58;64.13;101017.41;5055865;27;102124;-90
2022/01/14 09:06:08;;;;;;;12.88;10.88;;;;;;;8.58;64.12;101010.13;5071562;27;102758;-89
2022/01/14 09:08:34;;;;;;;12.27;9.90;;;;;;;8.59;63.89;101006.31;5067596;27;102450;-89
2022/01/14 09:11:01;;;;;;;13.35;10.95;;;;;;;8.59;64.22;101000.06;5056106;27;103883;-90
2022/01/14 09:13:29;;;;;;;12.88;10.27;;;;;;;8.59;64.30;101000.06;5074396;27;102096;-89
2022/01/14 09:15:56;;;;;;;11.73;9.63;;;;;;;8.58;63.43;100993.00;5057576;27;102249;-90
2022/01/14 09:18:22;;;;;;;13.55;10.38;;;;;;;8.58;64.01;100993.84;5056223;27;102528;-90
2022/01/14 09:20:50;;;;;;;11.63;9.80;;;;;;;8.57;64.63;100985.94;5053472;27;102687;-90
2022/01/14 09:23:23;;;;;;;11.40;9.68;;;;;;;8.59;63.69;100981.09;5055118;27;102398;-89
2022/01/14 09:25:50;;;;;;;13.27;10.57;;;;;;;8.59;64.71;100972.94;5070565;27;102151;-91
2022/01/14 09:28:17;;;;;;;12.75;10.52;;;;;;;8.58;63.79;100958.56;5075526;27;102476;-90
2022/01/14 09:30:43;;;;;;;13.52;10.68;;;;;;;8.58;64.39;100953.13;5069471;27;102866;-89
2022/01/14 09:33:10;;;;;;;12.73;10.50;;;;;;;8.60;64.19;100952.88;5073281;27;103607;-90
2022/01/14 09:35:37;;;;;;;13.65;10.25;;;;;;;8.59;64.12;100940.38;5070481;27;103604;-90
2022/01/14 09:38:05;;;;;;;13.45;10.68;;;;;;;8.59;64.03;100943.09;5069716;27;102911;-90
2022/01/14 09:40:32;;;;;;;13.13;10.80;;;;;;;8.59;64.05;100940.38;5067914;27;104576;-90
2022/01/14 09:43:01;;;;;;;13.25;10.80;;;;;;;8.59;64.61;100943.09;5063970;27;102471;-89
2022/01/14 09:45:29;;;;;;;13.10;10.50;;;;;;;8.60;63.76;100925.75;5069241;27;102590;-90
2022/01/14 09:47:56;;;;;;;12.75;10.30;;;;;;;8.59;64.45;100924.13;5071851;27;102314;-89
2022/01/14 09:50:24;;;;;;;12.88;10.52;;;;;;;8.59;64.89;100915.97;5069709;27;103332;-89
2022/01/14 09:52:51;;;;;;;13.60;10.65;;;;;;;8.60;64.03;100904.03;5070404;27;102178;-90
2022/01/14 09:55:20;;;;;;;12.25;10.02;;;;;;;8.60;64.40;100899.44;5075746;27;102303;-90
2022/01/14 09:57:47;;;;;;;12.02;10.27;;;;;;;8.59;64.60;100892.38;5079896;27;102276;-96
2022/01/14 10:00:14;;;;;;;13.20;9.82;;;;;;;8.60;63.68;100882.34;5073137;27;102051;-95
2022/01/14 10:02:43;;;;;;;11.38;10.07;;;;;;;8.59;63.66;100873.38;5074754;27;101317;-96
2022/01/14 10:05:29;;;;;;;13.40;10.30;;;;;;;8.60;64.70;100857.94;5076802;27;101302;-96
2022/01/14 10:08:06;;;;;;;11.18;9.40;;;;;;;8.61;64.21;100856.84;5080399;27;101275;-96
2022/01/14 10:10:38;;;;;;;14.93;10.68;;;;;;;8.61;63.60;100848.69;5076515;27;102299;-96
2022/01/14 10:13:13;;;;;;;12.82;10.30;;;;;;;8.60;64.21;100841.66;5081284;27;101341;-96
2022/01/14 10:15:44;;;;;;;12.20;9.90;;;;;;;8.60;64.16;100838.94;5080565;27;101722;-94
2022/01/14 10:18:14;;;;;;;11.52;9.88;;;;;;;8.60;64.59;100834.31;5080604;27;101940;-96
2022/01/14 10:20:41;;;;;;;11.20;9.73;;;;;;;8.61;64.80;100830.53;5076603;27;102125;-95
2022/01/14 10:23:07;;;;;;;13.02;10.43;;;;;;;8.61;64.00;100824.28;5071796;27;101333;-94
2022/01/14 10:25:36;;;;;;;11.75;10.32;;;;;;;8.61;63.66;100824.28;5081757;27;101681;-95
2022/01/14 10:28:02;;;;;;;12.73;10.27;;;;;;;8.61;64.40;100814.25;5078324;27;101928;-96
2022/01/14 10:30:31;;;;;;;12.90;10.75;;;;;;;8.61;64.07;100808.00;5077251;27;101556;-95
2022/01/14 10:33:00;;;;;;;13.25;10.82;;;;;;;8.61;64.06;100789.84;5067868;22;102595;-53
2022/01/14 10:35:29;;;;;;;12.23;10.57;;;;;;;8.61;64.00;100778.16;5019583;28;102328;-51
2022/01/14 10:37:58;;;;;;;12.10;10.38;;;;;;;8.61;64.62;100784.41;4999209;28;102448;-49
2022/01/14 10:40:28;;;;;;;13.35;10.30;;;;;;;8.61;65.07;100776.28;5002373;28;103944;-48
2022/01/14 10:43:03;;;;;;;12.30;10.15;;;;;;;8.61;63.95;100761.88;5021776;27;102747;-50
2022/01/14 10:45:30;;;;;;;13.70;10.70;;;;;;;8.60;64.17;100752.94;5019918;28;102302;-48
2022/01/14 10:48:01;;;;;;;13.45;10.40;;;;;;;8.60;64.24;100735.84;5008104;28;102637;-47
2022/01/14 10:50:36;;;;;;;13.45;11.40;;;;;;;8.61;64.81;100723.91;5003575;28;103319;-49
2022/01/14 10:53:08;;;;;;;16.20;10.48;;;;;;;8.61;64.56;100707.63;5006531;28;103933;-49
2022/01/14 10:55:37;;;;;;;13.13;10.70;;;;;;;8.61;64.63;100699.50;5000195;28;102764;-48
2022/01/14 10:58:10;;;;;;;14.73;10.88;;;;;;;8.60;64.86;100693.25;5011364;28;102441;-49
2022/01/14 11:00:42;;;;;;;13.65;10.73;;;;;;;8.61;64.59;100683.22;5014288;28;103975;-49
2022/01/14 11:03:09;;;;;;;14.07;10.38;;;;;;;8.61;63.90;100688.66;5003918;28;102317;-49
2022/01/14 11:05:35;;;;;;;12.60;10.40;;;;;;;8.61;64.17;100685.94;5011512;28;102433;-49
2022/01/14 11:08:03;;;;;;;13.02;10.70;;;;;;;8.61;64.19;100678.59;5001664;28;102204;-47
2022/01/14 11:10:33;;;;;;;13.98;11.55;;;;;;;8.60;64.55;100673.47;5001643;28;103931;-49
2022/01/14 11:13:01;;;;;;;14.05;10.57;;;;;;;8.61;64.50;100654.19;4985725;28;102620;-49
2022/01/14 11:15:31;;;;;;;15.63;11.60;;;;;;;8.62;64.54;100646.91;5000907;28;102619;-49
2022/01/14 11:18:01;;;;;;;12.23;10.32;;;;;;;8.62;64.85;100646.91;5002492;28;102252;-48
2022/01/14 11:20:33;;;;;;;13.57;10.82;;;;;;;8.62;64.15;100639.56;4996891;28;103883;-49
2022/01/14 11:23:15;;;;;;;13.38;10.77;;;;;;;8.62;64.70;100627.91;5004185;28;102278;-49
2022/01/14 11:25:48;;;;;;;14.05;11.32;;;;;;;8.62;64.92;100622.47;4999369;28;102428;-50
2022/01/14 11:28:20;;;;;;;13.73;11.05;;;;;;;8.61;64.62;100618.94;5004394;28;102148;-49
2022/01/14 11:30:48;;;;;;;14.48;11.05;;;;;;;8.62;64.37;100614.34;5011434;27;103960;-49
2022/01/14 11:33:15;;;;;;;13.50;10.80;;;;;;;8.62;63.99;100608.91;5000523;28;102420;-48
2022/01/14 11:35:54;;;;;;;12.63;10.93;;;;;;;8.61;64.43;100602.66;5002113;28;102635;-49